sensor_id;sensor_type;location;lat;lon;timestamp;P1;durP1;ratioP1;P2;durP2;ratioP2
19384;SDS011;9828;54.122;17.974;2022-08-21T00:01:52;4.40;;;4.00;;
19384;SDS011;9828;54.122;17.974;2022-08-21T00:07:14;3.95;;;3.65;;
19384;SDS011;9828;54.122;17.974;2022-08-21T00:12:36;4.20;;;3.80;;
19384;SDS011;9828;54.122;17.974;2022-08-21T00:17:59;3.90;;;3.60;;
19384;SDS011;9828;54.122;17.974;2022-08-21T00:23:20;5.00;;;3.47;;
19384;SDS011;9828;54.122;17.974;2022-08-21T00:28:42;3.97;;;3.67;;
19384;SDS011;9828;54.122;17.974;2022-08-21T00:34:03;3.80;;;3.50;;
19384;SDS011;9828;54.122;17.974;2022-08-21T00:39:24;4.18;;;3.60;;
19384;SDS011;9828;54.122;17.974;2022-08-21T00:44:48;3.90;;;3.60;;
19384;SDS011;9828;54.122;17.974;2022-08-21T00:50:11;6.18;;;4.53;;
19384;SDS011;9828;54.122;17.974;2022-08-21T00:55:32;4.60;;;4.20;;
19384;SDS011;9828;54.122;17.974;2022-08-21T01:00:57;4.65;;;4.25;;
19384;SDS011;9828;54.122;17.974;2022-08-21T01:06:25;4.45;;;4.15;;
19384;SDS011;9828;54.122;17.974;2022-08-21T01:11:46;4.50;;;4.10;;
19384;SDS011;9828;54.122;17.974;2022-08-21T01:17:08;4.30;;;3.90;;
19384;SDS011;9828;54.122;17.974;2022-08-21T01:22:31;4.45;;;4.07;;
19384;SDS011;9828;54.122;17.974;2022-08-21T01:27:53;5.90;;;5.15;;
19384;SDS011;9828;54.122;17.974;2022-08-21T01:33:15;5.70;;;5.20;;
19384;SDS011;9828;54.122;17.974;2022-08-21T01:38:38;5.00;;;4.63;;
19384;SDS011;9828;54.122;17.974;2022-08-21T01:44:00;6.15;;;5.55;;
19384;SDS011;9828;54.122;17.974;2022-08-21T01:49:21;9.73;;;7.97;;
19384;SDS011;9828;54.122;17.974;2022-08-21T01:54:43;8.20;;;7.20;;
19384;SDS011;9828;54.122;17.974;2022-08-21T02:00:05;9.32;;;7.15;;
19384;SDS011;9828;54.122;17.974;2022-08-21T02:05:31;8.35;;;7.63;;
19384;SDS011;9828;54.122;17.974;2022-08-21T02:10:52;13.43;;;10.20;;
19384;SDS011;9828;54.122;17.974;2022-08-21T02:16:14;13.10;;;11.30;;
19384;SDS011;9828;54.122;17.974;2022-08-21T02:21:36;11.48;;;9.63;;
19384;SDS011;9828;54.122;17.974;2022-08-21T02:26:57;10.60;;;9.50;;
19384;SDS011;9828;54.122;17.974;2022-08-21T02:32:19;10.73;;;9.73;;
19384;SDS011;9828;54.122;17.974;2022-08-21T02:37:46;10.30;;;9.20;;
19384;SDS011;9828;54.122;17.974;2022-08-21T02:43:10;10.90;;;8.68;;
19384;SDS011;9828;54.122;17.974;2022-08-21T02:48:32;8.23;;;7.43;;
19384;SDS011;9828;54.122;17.974;2022-08-21T02:53:54;9.10;;;7.70;;
19384;SDS011;9828;54.122;17.974;2022-08-21T02:59:16;9.25;;;7.80;;
19384;SDS011;9828;54.122;17.974;2022-08-21T03:04:37;7.20;;;6.57;;
19384;SDS011;9828;54.122;17.974;2022-08-21T03:10:00;7.85;;;7.05;;
19384;SDS011;9828;54.122;17.974;2022-08-21T03:15:22;7.05;;;6.35;;
19384;SDS011;9828;54.122;17.974;2022-08-21T03:20:44;6.47;;;5.85;;
19384;SDS011;9828;54.122;17.974;2022-08-21T03:26:07;6.60;;;5.53;;
19384;SDS011;9828;54.122;17.974;2022-08-21T03:31:29;5.75;;;5.13;;
19384;SDS011;9828;54.122;17.974;2022-08-21T03:36:52;6.63;;;5.07;;
19384;SDS011;9828;54.122;17.974;2022-08-21T03:42:14;5.63;;;5.13;;
19384;SDS011;9828;54.122;17.974;2022-08-21T03:47:35;5.53;;;5.03;;
19384;SDS011;9828;54.122;17.974;2022-08-21T03:52:57;5.55;;;4.85;;
19384;SDS011;9828;54.122;17.974;2022-08-21T03:58:21;7.43;;;5.40;;
19384;SDS011;9828;54.122;17.974;2022-08-21T04:03:44;5.13;;;4.65;;
19384;SDS011;9828;54.122;17.974;2022-08-21T04:09:06;4.75;;;4.35;;
19384;SDS011;9828;54.122;17.974;2022-08-21T04:14:27;4.85;;;4.03;;
19384;SDS011;9828;54.122;17.974;2022-08-21T04:19:49;4.55;;;4.25;;
19384;SDS011;9828;54.122;17.974;2022-08-21T04:25:13;6.72;;;4.45;;
19384;SDS011;9828;54.122;17.974;2022-08-21T04:30:35;4.68;;;3.97;;
19384;SDS011;9828;54.122;17.974;2022-08-21T04:35:57;4.45;;;4.05;;
19384;SDS011;9828;54.122;17.974;2022-08-21T04:41:18;3.80;;;3.50;;
19384;SDS011;9828;54.122;17.974;2022-08-21T04:46:39;4.80;;;4.35;;
19384;SDS011;9828;54.122;17.974;2022-08-21T04:52:00;5.97;;;4.55;;
19384;SDS011;9828;54.122;17.974;2022-08-21T04:57:22;4.85;;;4.35;;
19384;SDS011;9828;54.122;17.974;2022-08-21T05:02:44;3.85;;;3.45;;
19384;SDS011;9828;54.122;17.974;2022-08-21T05:08:09;4.28;;;3.88;;
19384;SDS011;9828;54.122;17.974;2022-08-21T05:13:35;5.55;;;3.92;;
19384;SDS011;9828;54.122;17.974;2022-08-21T05:18:56;5.07;;;4.07;;
19384;SDS011;9828;54.122;17.974;2022-08-21T05:24:18;5.25;;;4.68;;
19384;SDS011;9828;54.122;17.974;2022-08-21T05:29:40;7.10;;;4.45;;
19384;SDS011;9828;54.122;17.974;2022-08-21T05:35:02;4.30;;;3.90;;
19384;SDS011;9828;54.122;17.974;2022-08-21T05:40:27;8.13;;;3.10;;
19384;SDS011;9828;54.122;17.974;2022-08-21T05:45:48;3.97;;;3.50;;
19384;SDS011;9828;54.122;17.974;2022-08-21T05:51:11;5.45;;;3.90;;
19384;SDS011;9828;54.122;17.974;2022-08-21T05:56:34;4.90;;;3.78;;
19384;SDS011;9828;54.122;17.974;2022-08-21T06:01:56;3.90;;;3.50;;
19384;SDS011;9828;54.122;17.974;2022-08-21T06:07:19;5.05;;;4.25;;
19384;SDS011;9828;54.122;17.974;2022-08-21T06:12:40;4.28;;;3.88;;
19384;SDS011;9828;54.122;17.974;2022-08-21T06:18:02;4.10;;;3.40;;
19384;SDS011;9828;54.122;17.974;2022-08-21T06:23:23;3.35;;;3.03;;
19384;SDS011;9828;54.122;17.974;2022-08-21T06:28:45;4.03;;;2.78;;
19384;SDS011;9828;54.122;17.974;2022-08-21T06:34:07;2.95;;;2.65;;
19384;SDS011;9828;54.122;17.974;2022-08-21T06:39:28;3.97;;;2.78;;
19384;SDS011;9828;54.122;17.974;2022-08-21T06:44:50;6.93;;;2.70;;
19384;SDS011;9828;54.122;17.974;2022-08-21T06:50:12;3.83;;;2.65;;
19384;SDS011;9828;54.122;17.974;2022-08-21T06:55:33;3.35;;;2.67;;
19384;SDS011;9828;54.122;17.974;2022-08-21T07:00:55;5.03;;;3.15;;
19384;SDS011;9828;54.122;17.974;2022-08-21T07:06:19;4.38;;;2.80;;
19384;SDS011;9828;54.122;17.974;2022-08-21T07:11:42;3.67;;;3.00;;
19384;SDS011;9828;54.122;17.974;2022-08-21T07:17:05;2.90;;;2.58;;
19384;SDS011;9828;54.122;17.974;2022-08-21T07:22:26;3.42;;;2.72;;
19384;SDS011;9828;54.122;17.974;2022-08-21T07:27:48;2.47;;;2.30;;
19384;SDS011;9828;54.122;17.974;2022-08-21T07:33:09;2.88;;;2.63;;
19384;SDS011;9828;54.122;17.974;2022-08-21T07:38:31;6.47;;;3.10;;
19384;SDS011;9828;54.122;17.974;2022-08-21T07:43:52;3.70;;;3.10;;
19384;SDS011;9828;54.122;17.974;2022-08-21T07:49:14;2.80;;;2.38;;
19384;SDS011;9828;54.122;17.974;2022-08-21T07:54:36;2.97;;;2.70;;
19384;SDS011;9828;54.122;17.974;2022-08-21T07:59:57;4.85;;;2.78;;
19384;SDS011;9828;54.122;17.974;2022-08-21T08:05:20;3.72;;;2.80;;
19384;SDS011;9828;54.122;17.974;2022-08-21T08:10:43;3.08;;;2.40;;
19384;SDS011;9828;54.122;17.974;2022-08-21T08:16:06;2.70;;;2.28;;
19384;SDS011;9828;54.122;17.974;2022-08-21T08:21:27;2.88;;;2.55;;
19384;SDS011;9828;54.122;17.974;2022-08-21T08:26:49;3.35;;;2.85;;
19384;SDS011;9828;54.122;17.974;2022-08-21T08:32:10;3.40;;;2.60;;
19384;SDS011;9828;54.122;17.974;2022-08-21T08:37:32;3.35;;;2.92;;
19384;SDS011;9828;54.122;17.974;2022-08-21T08:42:54;3.45;;;2.90;;
19384;SDS011;9828;54.122;17.974;2022-08-21T08:48:19;3.55;;;3.10;;
19384;SDS011;9828;54.122;17.974;2022-08-21T08:54:18;5.30;;;2.97;;
19384;SDS011;9828;54.122;17.974;2022-08-21T08:59:48;4.28;;;2.72;;
19384;SDS011;9828;54.122;17.974;2022-08-21T09:05:38;3.55;;;2.58;;
19384;SDS011;9828;54.122;17.974;2022-08-21T09:22:17;2.60;;;2.40;;
19384;SDS011;9828;54.122;17.974;2022-08-21T09:27:43;4.70;;;2.53;;
19384;SDS011;9828;54.122;17.974;2022-08-21T09:33:04;2.53;;;2.17;;
19384;SDS011;9828;54.122;17.974;2022-08-21T09:38:28;3.08;;;1.90;;
19384;SDS011;9828;54.122;17.974;2022-08-21T09:43:54;3.00;;;1.90;;
19384;SDS011;9828;54.122;17.974;2022-08-21T09:49:26;2.00;;;1.80;;
19384;SDS011;9828;54.122;17.974;2022-08-21T09:54:53;2.78;;;2.08;;
19384;SDS011;9828;54.122;17.974;2022-08-21T10:05:57;4.28;;;1.90;;
19384;SDS011;9828;54.122;17.974;2022-08-21T10:11:23;2.90;;;2.08;;
19384;SDS011;9828;54.122;17.974;2022-08-21T10:29:07;2.92;;;1.70;;
19384;SDS011;9828;54.122;17.974;2022-08-21T10:39:44;2.85;;;2.00;;
19384;SDS011;9828;54.122;17.974;2022-08-21T10:51:35;3.83;;;2.28;;
19384;SDS011;9828;54.122;17.974;2022-08-21T10:57:12;2.75;;;1.77;;
19384;SDS011;9828;54.122;17.974;2022-08-21T11:02:48;2.13;;;1.50;;
19384;SDS011;9828;54.122;17.974;2022-08-21T11:08:13;3.33;;;2.10;;
19384;SDS011;9828;54.122;17.974;2022-08-21T11:13:40;3.97;;;2.60;;
19384;SDS011;9828;54.122;17.974;2022-08-21T11:19:08;4.63;;;2.28;;
19384;SDS011;9828;54.122;17.974;2022-08-21T11:30:07;3.83;;;2.95;;
19384;SDS011;9828;54.122;17.974;2022-08-21T11:46:49;2.65;;;2.17;;
19384;SDS011;9828;54.122;17.974;2022-08-21T11:52:21;2.90;;;1.80;;
19384;SDS011;9828;54.122;17.974;2022-08-21T11:57:55;2.97;;;1.85;;
19384;SDS011;9828;54.122;17.974;2022-08-21T12:03:24;1.83;;;1.70;;
19384;SDS011;9828;54.122;17.974;2022-08-21T12:08:57;1.73;;;1.40;;
19384;SDS011;9828;54.122;17.974;2022-08-21T12:14:20;2.10;;;1.70;;
19384;SDS011;9828;54.122;17.974;2022-08-21T12:19:41;4.70;;;1.30;;
19384;SDS011;9828;54.122;17.974;2022-08-21T12:25:07;1.63;;;1.38;;
19384;SDS011;9828;54.122;17.974;2022-08-21T12:30:40;1.70;;;1.60;;
19384;SDS011;9828;54.122;17.974;2022-08-21T12:36:09;1.42;;;1.33;;
19384;SDS011;9828;54.122;17.974;2022-08-21T12:41:37;3.72;;;1.63;;
19384;SDS011;9828;54.122;17.974;2022-08-21T12:47:22;1.80;;;1.30;;
19384;SDS011;9828;54.122;17.974;2022-08-21T12:53:21;3.03;;;1.67;;
19384;SDS011;9828;54.122;17.974;2022-08-21T12:58:55;3.80;;;1.75;;
19384;SDS011;9828;54.122;17.974;2022-08-21T13:04:38;2.00;;;1.58;;
19384;SDS011;9828;54.122;17.974;2022-08-21T13:10:06;1.60;;;1.50;;
19384;SDS011;9828;54.122;17.974;2022-08-21T13:15:37;2.42;;;1.42;;
19384;SDS011;9828;54.122;17.974;2022-08-21T13:21:18;1.60;;;1.50;;
19384;SDS011;9828;54.122;17.974;2022-08-21T13:26:39;3.15;;;1.92;;
19384;SDS011;9828;54.122;17.974;2022-08-21T13:32:02;5.15;;;1.42;;
19384;SDS011;9828;54.122;17.974;2022-08-21T13:37:27;2.10;;;1.40;;
19384;SDS011;9828;54.122;17.974;2022-08-21T13:42:49;2.95;;;1.63;;
19384;SDS011;9828;54.122;17.974;2022-08-21T13:48:11;3.17;;;1.48;;
19384;SDS011;9828;54.122;17.974;2022-08-21T13:58:57;2.65;;;1.33;;
19384;SDS011;9828;54.122;17.974;2022-08-21T14:04:22;1.35;;;1.25;;
19384;SDS011;9828;54.122;17.974;2022-08-21T14:09:47;3.08;;;1.52;;
19384;SDS011;9828;54.122;17.974;2022-08-21T14:15:08;4.43;;;1.58;;
19384;SDS011;9828;54.122;17.974;2022-08-21T14:20:34;4.10;;;1.38;;
19384;SDS011;9828;54.122;17.974;2022-08-21T14:25:58;4.00;;;1.55;;
19384;SDS011;9828;54.122;17.974;2022-08-21T14:31:27;4.05;;;1.52;;
19384;SDS011;9828;54.122;17.974;2022-08-21T14:36:50;4.53;;;1.92;;
19384;SDS011;9828;54.122;17.974;2022-08-21T14:42:12;5.90;;;2.33;;
19384;SDS011;9828;54.122;17.974;2022-08-21T14:47:33;4.47;;;2.20;;
19384;SDS011;9828;54.122;17.974;2022-08-21T14:52:55;4.20;;;1.63;;
19384;SDS011;9828;54.122;17.974;2022-08-21T14:58:16;3.17;;;1.80;;
19384;SDS011;9828;54.122;17.974;2022-08-21T15:03:37;2.38;;;1.60;;
19384;SDS011;9828;54.122;17.974;2022-08-21T15:08:59;3.42;;;1.80;;
19384;SDS011;9828;54.122;17.974;2022-08-21T15:14:25;3.70;;;2.08;;
19384;SDS011;9828;54.122;17.974;2022-08-21T15:19:48;4.68;;;1.63;;
19384;SDS011;9828;54.122;17.974;2022-08-21T15:25:10;4.70;;;1.90;;
19384;SDS011;9828;54.122;17.974;2022-08-21T15:30:31;3.05;;;1.70;;
19384;SDS011;9828;54.122;17.974;2022-08-21T15:35:53;4.20;;;1.70;;
19384;SDS011;9828;54.122;17.974;2022-08-21T15:41:15;2.20;;;1.75;;
19384;SDS011;9828;54.122;17.974;2022-08-21T15:46:37;4.63;;;1.83;;
19384;SDS011;9828;54.122;17.974;2022-08-21T15:52:00;5.45;;;2.55;;
19384;SDS011;9828;54.122;17.974;2022-08-21T15:57:22;4.45;;;2.83;;
19384;SDS011;9828;54.122;17.974;2022-08-21T16:02:45;3.97;;;2.30;;
19384;SDS011;9828;54.122;17.974;2022-08-21T16:08:08;5.95;;;2.25;;
19384;SDS011;9828;54.122;17.974;2022-08-21T16:13:36;2.58;;;2.00;;
19384;SDS011;9828;54.122;17.974;2022-08-21T16:19:00;2.95;;;1.75;;
19384;SDS011;9828;54.122;17.974;2022-08-21T16:24:23;1.33;;;1.20;;
19384;SDS011;9828;54.122;17.974;2022-08-21T16:29:45;3.78;;;1.67;;
19384;SDS011;9828;54.122;17.974;2022-08-21T16:35:08;4.05;;;2.17;;
19384;SDS011;9828;54.122;17.974;2022-08-21T16:40:33;3.08;;;2.17;;
19384;SDS011;9828;54.122;17.974;2022-08-21T16:45:56;2.95;;;1.50;;
19384;SDS011;9828;54.122;17.974;2022-08-21T16:51:18;2.85;;;1.58;;
19384;SDS011;9828;54.122;17.974;2022-08-21T16:56:39;2.55;;;1.45;;
19384;SDS011;9828;54.122;17.974;2022-08-21T17:02:02;3.00;;;1.23;;
19384;SDS011;9828;54.122;17.974;2022-08-21T17:07:23;2.35;;;1.60;;
19384;SDS011;9828;54.122;17.974;2022-08-21T17:12:46;2.83;;;1.40;;
19384;SDS011;9828;54.122;17.974;2022-08-21T17:18:16;3.38;;;1.75;;
19384;SDS011;9828;54.122;17.974;2022-08-21T17:23:40;6.93;;;1.80;;
19384;SDS011;9828;54.122;17.974;2022-08-21T17:29:01;4.38;;;1.80;;
19384;SDS011;9828;54.122;17.974;2022-08-21T17:34:28;4.93;;;2.53;;
19384;SDS011;9828;54.122;17.974;2022-08-21T17:39:50;6.05;;;2.72;;
19384;SDS011;9828;54.122;17.974;2022-08-21T17:45:13;6.05;;;2.45;;
19384;SDS011;9828;54.122;17.974;2022-08-21T17:50:37;5.20;;;2.38;;
19384;SDS011;9828;54.122;17.974;2022-08-21T17:55:58;4.00;;;1.80;;
19384;SDS011;9828;54.122;17.974;2022-08-21T18:01:20;4.28;;;1.60;;
19384;SDS011;9828;54.122;17.974;2022-08-21T18:06:41;3.80;;;1.92;;
19384;SDS011;9828;54.122;17.974;2022-08-21T18:12:04;6.18;;;2.08;;
19384;SDS011;9828;54.122;17.974;2022-08-21T18:17:25;2.97;;;1.98;;
19384;SDS011;9828;54.122;17.974;2022-08-21T18:22:49;6.70;;;2.72;;
19384;SDS011;9828;54.122;17.974;2022-08-21T18:28:11;4.72;;;2.30;;
19384;SDS011;9828;54.122;17.974;2022-08-21T18:33:32;2.67;;;1.95;;
19384;SDS011;9828;54.122;17.974;2022-08-21T18:38:54;3.38;;;1.58;;
19384;SDS011;9828;54.122;17.974;2022-08-21T18:44:21;2.28;;;1.65;;
19384;SDS011;9828;54.122;17.974;2022-08-21T18:49:43;3.05;;;2.10;;
19384;SDS011;9828;54.122;17.974;2022-08-21T18:55:05;4.85;;;2.70;;
19384;SDS011;9828;54.122;17.974;2022-08-21T19:00:29;6.88;;;3.33;;
19384;SDS011;9828;54.122;17.974;2022-08-21T19:05:53;6.57;;;3.03;;
19384;SDS011;9828;54.122;17.974;2022-08-21T19:11:14;5.72;;;2.80;;
19384;SDS011;9828;54.122;17.974;2022-08-21T19:16:40;6.50;;;2.35;;
19384;SDS011;9828;54.122;17.974;2022-08-21T19:22:02;6.50;;;1.83;;
19384;SDS011;9828;54.122;17.974;2022-08-21T19:27:23;2.20;;;1.60;;
19384;SDS011;9828;54.122;17.974;2022-08-21T19:32:45;2.47;;;1.58;;
19384;SDS011;9828;54.122;17.974;2022-08-21T19:38:09;5.70;;;1.92;;
19384;SDS011;9828;54.122;17.974;2022-08-21T19:43:30;4.57;;;1.98;;
19384;SDS011;9828;54.122;17.974;2022-08-21T19:48:55;2.13;;;1.60;;
19384;SDS011;9828;54.122;17.974;2022-08-21T19:54:19;2.83;;;1.42;;
19384;SDS011;9828;54.122;17.974;2022-08-21T19:59:45;4.10;;;1.60;;
19384;SDS011;9828;54.122;17.974;2022-08-21T20:05:07;1.92;;;1.65;;
19384;SDS011;9828;54.122;17.974;2022-08-21T20:10:29;2.03;;;1.30;;
19384;SDS011;9828;54.122;17.974;2022-08-21T20:15:51;2.33;;;1.67;;
19384;SDS011;9828;54.122;17.974;2022-08-21T20:21:13;3.53;;;2.20;;
19384;SDS011;9828;54.122;17.974;2022-08-21T20:26:35;2.63;;;1.65;;
19384;SDS011;9828;54.122;17.974;2022-08-21T20:31:57;2.85;;;1.67;;
19384;SDS011;9828;54.122;17.974;2022-08-21T20:37:19;2.45;;;1.50;;
19384;SDS011;9828;54.122;17.974;2022-08-21T20:42:42;5.03;;;1.75;;
19384;SDS011;9828;54.122;17.974;2022-08-21T20:48:10;2.97;;;1.73;;
19384;SDS011;9828;54.122;17.974;2022-08-21T20:53:43;3.40;;;1.70;;
19384;SDS011;9828;54.122;17.974;2022-08-21T21:04:49;3.58;;;2.00;;
19384;SDS011;9828;54.122;17.974;2022-08-21T21:10:18;3.58;;;1.98;;
19384;SDS011;9828;54.122;17.974;2022-08-21T21:15:51;4.28;;;1.58;;
19384;SDS011;9828;54.122;17.974;2022-08-21T21:27:00;3.28;;;1.92;;
19384;SDS011;9828;54.122;17.974;2022-08-21T21:32:27;2.97;;;2.00;;
19384;SDS011;9828;54.122;17.974;2022-08-21T21:48:55;3.83;;;1.75;;
19384;SDS011;9828;54.122;17.974;2022-08-21T22:05:20;1.50;;;1.33;;
19384;SDS011;9828;54.122;17.974;2022-08-21T22:16:18;4.03;;;1.48;;
19384;SDS011;9828;54.122;17.974;2022-08-21T22:21:48;3.55;;;1.70;;
19384;SDS011;9828;54.122;17.974;2022-08-21T22:27:14;2.50;;;1.70;;
19384;SDS011;9828;54.122;17.974;2022-08-21T22:32:39;1.90;;;1.60;;
19384;SDS011;9828;54.122;17.974;2022-08-21T22:38:08;4.25;;;1.90;;
19384;SDS011;9828;54.122;17.974;2022-08-21T22:43:36;4.10;;;2.20;;
19384;SDS011;9828;54.122;17.974;2022-08-21T22:55:15;2.67;;;1.85;;
19384;SDS011;9828;54.122;17.974;2022-08-21T23:00:56;2.83;;;1.55;;
19384;SDS011;9828;54.122;17.974;2022-08-21T23:06:28;3.13;;;2.00;;
19384;SDS011;9828;54.122;17.974;2022-08-21T23:11:55;3.22;;;1.80;;
19384;SDS011;9828;54.122;17.974;2022-08-21T23:17:19;4.43;;;2.22;;
19384;SDS011;9828;54.122;17.974;2022-08-21T23:23:12;2.03;;;1.83;;
19384;SDS011;9828;54.122;17.974;2022-08-21T23:34:26;3.08;;;1.40;;
19384;SDS011;9828;54.122;17.974;2022-08-21T23:39:55;2.60;;;1.70;;
19384;SDS011;9828;54.122;17.974;2022-08-21T23:51:00;1.73;;;1.45;;
